Aérodrome :
LOGIN :

S'inscrire | Disclaimer

   EN    FR    IT 

 










Légende :    VFR   VFR Marginal   IFR   IFR Intensif   IFR Très Intensif
Visi : 
Plafond : 
>= 8 km
>= 3000ft
5 à 8 km
1000 à 3000 ft
1500m à 5 km
500 à 1000 ft
800 à 1500m
200 à 500 ft
< 800m
< 200 ft
Symboles :   Orages  Brouillard  Fortes neiges  Fortes précipitations  Vent > 20 kt
SIGMETs :   Divers  Orages  Givrage  Turbulence  Onde Orograph.  Cendres Volcan.






- Altitude de l'aérodrome : 885 ft
- Code IATA : BAS


LFSB - Bale-Mulhouse

DERNIER METAR :
  • 270200Z AUTO 16005KT 140V200 7000 BKN028/// BKN033/// OVC058/// 04/03 Q1019 NOSIG

METARs EXPIRÉS :
  • 270130Z AUTO 16005KT 7000 FEW027/// BKN062/// OVC076/// 04/03 Q1019
  • 270100Z AUTO 17003KT 150V220 7000 FEW031/// BKN037/// BKN058/// 05/03 Q1019 NOSIG
  • 270030Z AUTO 17004KT 140V240 8000 BKN026/// BKN037/// OVC048/// 05/03 Q1019 NOSIG
  • 270000Z AUTO 16006KT 7000 BKN026/// OVC034/// 05/03 Q1019 NOSIG
  • 262330Z AUTO 18003KT 160V220 8000 OVC026/// 05/03 Q1019 NOSIG

TAF TAF LFSB
Valide du 27 à 00h jusqu'au 28 à 00h UTC


262300Z 2700/2724 17005KT 8000 NSC
BECMG 2720/2722 24012G22KT
TEMPO 2720/2724 RA BKN040
Météo : +33 3 89 90 31 11



MET'MAP, la Météo Aéronautique d'un coup d'oeil ! - Copyright ORBIFLY Décembre 2007 - Disclaimer

ORBIFLY MET'MAP TEAM :

Programmation & Développement : Alexandra Zaïnal
Sur une idée originale de : Baudouin d'Aumeries
Assistance à la programmation : Marc-Olivier Méhu
Soutien technique & logistique : Manuel Goepfert

Contact : metmap@orbifly.com




SOURCES & CREDITS :

   NOAA